Share

Alexandria, Romania

9:25 PM EEST on April 23, 2014 (GMT +0300)
Rasuceni (IRU0103S2) Elev 217 ft | 44.10 °N, 25.67 °E | Change Station

Current weather conditions updated 2 seconds ago

Clear
Clear
67.1 °F
Feels Like 67.1 °F
N
1.0
Wind Variable Wind from SSE
Gusts 1.7 mph
Sunrise 6:22 AM
Sunset 8:11 PM
Moon Waning Crescent

Tomorrow is forecast to be Much Cooler than today. Showers.

Pressure 29.98 in
Visibility -9999.0 miles
Clouds
Dew Point 59 °F
Humidity 75%
Rainfall 0.00 in
Snow Depth Not available.
UV Not available.
Pollen Not available.
Air Quality Not available.
Flu Activity Not available.
METAR LRBS 231800Z 07004KT CAVOK 19/14 Q1015 NOSIG

More Conditions Fewer Conditions

Pressure 29.98 in
Visibility -9999.0 miles
Clouds
Dew Point 59 °F
Humidity 75%
Rainfall 0.00 in
Snow Depth Not available.
UV Not available.
Pollen Not available.
Air Quality Not available.
Flu Activity Not available.
METAR LRBS 231800Z 07004KT CAVOK 19/14 Q1015 NOSIG

More Conditions Fewer Conditions

10-Day Weather Forecast

Almanac

Astronomy

Apr. 23, 2014 Rise Set
Actual Time 6:22 AM EEST 8:11 PM EEST
Civil Twilight 5:52 AM EEST 8:42 PM EEST
Nautical Twilight 5:14 AM EEST 9:20 PM EEST
Astronomical Twilight 4:34 AM EEST 10:01 PM EEST
Moon 2:54 AM EEST 1:46 PM EEST
Length of Visible Light 14h 50m
Length of Day
13h 49m
Tomorrow will be 2m 46s longer.
Waning Crescent, 34% of the Moon is Illuminated
Today
Waning Crescent
Apr 29
New
May 6
First Quarter
May 14
Full
May 21
Last Quarter

Today's Extremes

Country Highs Country Lows

Community

  • Stunning Sunrise
    Stunning Sunrise
  • spring flowers
    spring flowers
  • Earth Day Spectrum Ove' Blue
    Earth Day Spectrum Ove' Blue
  • BARN B&W
    BARN B&W
  • April Sunset
    April Sunset

WunderPhotos

Upload Photos

1,704,362 photos uploaded!

WunderBlogs® & News

Nearby

Snow Depth

Not available.

Coastal Water Temperatures

Place Temperature
No Stations Reporting

Earthquake Activity

City Distance Mag. Time & Date
No recent earthquake activity has been reported nearby.
Minimum magnitude displayed is 2.5.

Nearby Weather Stations

Station Location Temp. Dew Point Humidity Wind Precip. Elev Updated Type
Rasuceni, R%u0103suceni 67.1 °F 59 °F 75% SSE  at  1.0 mph 0.00 in / hr 217 ft 9:25 PM EEST Rapid Fire

Show More Stations Show Fewer Stations

What do you think?

We're not finished. Please let us know what you like, what you don't like, and what you are still missing.